sensor_id;sensor_type;location;lat;lon;timestamp;P1;durP1;ratioP1;P2;durP2;ratioP2
24897;SDS011;12957;49.434;8.684;2023-05-07T00:01:03;4.18;;;1.48;;
24897;SDS011;12957;49.434;8.684;2023-05-07T00:03:30;1.40;;;1.40;;
24897;SDS011;12957;49.434;8.684;2023-05-07T00:05:56;3.13;;;1.58;;
24897;SDS011;12957;49.434;8.684;2023-05-07T00:08:21;2.08;;;1.50;;
24897;SDS011;12957;49.434;8.684;2023-05-07T00:10:47;1.73;;;1.63;;
24897;SDS011;12957;49.434;8.684;2023-05-07T00:13:13;3.72;;;1.80;;
24897;SDS011;12957;49.434;8.684;2023-05-07T00:15:38;1.48;;;1.38;;
24897;SDS011;12957;49.434;8.684;2023-05-07T00:18:04;1.38;;;1.38;;
24897;SDS011;12957;49.434;8.684;2023-05-07T00:20:29;2.33;;;1.88;;
24897;SDS011;12957;49.434;8.684;2023-05-07T00:22:55;2.88;;;1.67;;
24897;SDS011;12957;49.434;8.684;2023-05-07T00:25:20;2.20;;;1.98;;
24897;SDS011;12957;49.434;8.684;2023-05-07T00:27:46;1.63;;;1.60;;
24897;SDS011;12957;49.434;8.684;2023-05-07T00:30:11;2.25;;;1.83;;
24897;SDS011;12957;49.434;8.684;2023-05-07T00:32:37;3.08;;;1.70;;
24897;SDS011;12957;49.434;8.684;2023-05-07T00:35:03;4.18;;;1.60;;
24897;SDS011;12957;49.434;8.684;2023-05-07T00:37:29;1.63;;;1.50;;
24897;SDS011;12957;49.434;8.684;2023-05-07T00:39:55;4.43;;;2.05;;
24897;SDS011;12957;49.434;8.684;2023-05-07T00:42:20;1.60;;;1.50;;
24897;SDS011;12957;49.434;8.684;2023-05-07T00:44:46;1.95;;;1.55;;
24897;SDS011;12957;49.434;8.684;2023-05-07T00:47:12;1.52;;;1.42;;
24897;SDS011;12957;49.434;8.684;2023-05-07T00:49:39;1.48;;;1.30;;
24897;SDS011;12957;49.434;8.684;2023-05-07T00:52:06;1.42;;;1.30;;
24897;SDS011;12957;49.434;8.684;2023-05-07T00:54:33;2.75;;;1.20;;
24897;SDS011;12957;49.434;8.684;2023-05-07T00:56:59;2.75;;;1.30;;
24897;SDS011;12957;49.434;8.684;2023-05-07T00:59:25;4.07;;;1.20;;
24897;SDS011;12957;49.434;8.684;2023-05-07T01:01:51;2.08;;;1.40;;
24897;SDS011;12957;49.434;8.684;2023-05-07T01:04:17;1.63;;;1.02;;
24897;SDS011;12957;49.434;8.684;2023-05-07T01:06:42;1.17;;;1.10;;
24897;SDS011;12957;49.434;8.684;2023-05-07T01:09:09;3.25;;;1.20;;
24897;SDS011;12957;49.434;8.684;2023-05-07T01:11:35;1.00;;;1.00;;
24897;SDS011;12957;49.434;8.684;2023-05-07T01:14:00;2.42;;;1.35;;
24897;SDS011;12957;49.434;8.684;2023-05-07T01:16:26;6.43;;;1.25;;
24897;SDS011;12957;49.434;8.684;2023-05-07T01:18:52;1.15;;;1.00;;
24897;SDS011;12957;49.434;8.684;2023-05-07T01:21:18;4.05;;;1.45;;
24897;SDS011;12957;49.434;8.684;2023-05-07T01:23:44;2.10;;;1.13;;
24897;SDS011;12957;49.434;8.684;2023-05-07T01:26:10;0.95;;;0.95;;
24897;SDS011;12957;49.434;8.684;2023-05-07T01:28:35;1.10;;;1.10;;
24897;SDS011;12957;49.434;8.684;2023-05-07T01:31:02;1.75;;;1.10;;
24897;SDS011;12957;49.434;8.684;2023-05-07T01:33:29;1.10;;;1.10;;
24897;SDS011;12957;49.434;8.684;2023-05-07T01:35:57;0.93;;;0.93;;
24897;SDS011;12957;49.434;8.684;2023-05-07T01:38:23;4.03;;;1.10;;
24897;SDS011;12957;49.434;8.684;2023-05-07T01:40:49;1.05;;;1.05;;
24897;SDS011;12957;49.434;8.684;2023-05-07T01:43:14;1.40;;;1.13;;
24897;SDS011;12957;49.434;8.684;2023-05-07T01:45:40;0.98;;;0.98;;
24897;SDS011;12957;49.434;8.684;2023-05-07T01:48:06;1.30;;;1.20;;
24897;SDS011;12957;49.434;8.684;2023-05-07T01:50:32;3.47;;;1.20;;
24897;SDS011;12957;49.434;8.684;2023-05-07T01:52:58;1.10;;;1.10;;
24897;SDS011;12957;49.434;8.684;2023-05-07T01:55:24;1.10;;;1.10;;
24897;SDS011;12957;49.434;8.684;2023-05-07T01:57:50;1.35;;;1.00;;
24897;SDS011;12957;49.434;8.684;2023-05-07T02:00:15;1.23;;;1.05;;
24897;SDS011;12957;49.434;8.684;2023-05-07T02:02:42;1.77;;;1.02;;
24897;SDS011;12957;49.434;8.684;2023-05-07T02:05:08;2.72;;;1.17;;
24897;SDS011;12957;49.434;8.684;2023-05-07T02:07:33;0.90;;;0.90;;
24897;SDS011;12957;49.434;8.684;2023-05-07T02:09:59;1.25;;;1.10;;
24897;SDS011;12957;49.434;8.684;2023-05-07T02:12:24;1.55;;;1.30;;
24897;SDS011;12957;49.434;8.684;2023-05-07T02:14:50;1.48;;;1.20;;
24897;SDS011;12957;49.434;8.684;2023-05-07T02:17:15;1.67;;;1.45;;
24897;SDS011;12957;49.434;8.684;2023-05-07T02:19:41;1.10;;;1.10;;
24897;SDS011;12957;49.434;8.684;2023-05-07T02:22:07;2.55;;;1.02;;
24897;SDS011;12957;49.434;8.684;2023-05-07T02:24:32;2.00;;;1.20;;
24897;SDS011;12957;49.434;8.684;2023-05-07T02:26:58;1.42;;;1.40;;
24897;SDS011;12957;49.434;8.684;2023-05-07T02:29:23;1.02;;;1.02;;
24897;SDS011;12957;49.434;8.684;2023-05-07T02:31:49;1.20;;;1.10;;
24897;SDS011;12957;49.434;8.684;2023-05-07T02:34:16;0.90;;;0.90;;
24897;SDS011;12957;49.434;8.684;2023-05-07T02:36:42;6.07;;;1.05;;
24897;SDS011;12957;49.434;8.684;2023-05-07T02:39:07;1.45;;;1.10;;
24897;SDS011;12957;49.434;8.684;2023-05-07T02:41:33;1.10;;;1.10;;
24897;SDS011;12957;49.434;8.684;2023-05-07T02:43:58;0.90;;;0.90;;
24897;SDS011;12957;49.434;8.684;2023-05-07T02:46:24;1.30;;;1.20;;
24897;SDS011;12957;49.434;8.684;2023-05-07T02:48:49;1.75;;;1.40;;
24897;SDS011;12957;49.434;8.684;2023-05-07T02:51:17;1.08;;;1.05;;
24897;SDS011;12957;49.434;8.684;2023-05-07T02:53:44;6.05;;;1.17;;
24897;SDS011;12957;49.434;8.684;2023-05-07T02:56:11;1.15;;;1.05;;
24897;SDS011;12957;49.434;8.684;2023-05-07T02:58:36;1.20;;;0.90;;
24897;SDS011;12957;49.434;8.684;2023-05-07T03:01:01;1.05;;;1.05;;
24897;SDS011;12957;49.434;8.684;2023-05-07T03:03:27;4.10;;;1.30;;
24897;SDS011;12957;49.434;8.684;2023-05-07T03:05:52;2.42;;;1.60;;
24897;SDS011;12957;49.434;8.684;2023-05-07T03:08:18;1.35;;;1.20;;
24897;SDS011;12957;49.434;8.684;2023-05-07T03:10:43;1.77;;;1.65;;
24897;SDS011;12957;49.434;8.684;2023-05-07T03:13:09;1.58;;;1.50;;
24897;SDS011;12957;49.434;8.684;2023-05-07T03:15:34;1.55;;;1.45;;
24897;SDS011;12957;49.434;8.684;2023-05-07T03:18:00;4.20;;;1.30;;
24897;SDS011;12957;49.434;8.684;2023-05-07T03:20:25;3.25;;;1.80;;
24897;SDS011;12957;49.434;8.684;2023-05-07T03:22:51;1.38;;;1.38;;
24897;SDS011;12957;49.434;8.684;2023-05-07T03:25:16;1.70;;;1.60;;
24897;SDS011;12957;49.434;8.684;2023-05-07T03:27:42;3.38;;;1.80;;
24897;SDS011;12957;49.434;8.684;2023-05-07T03:30:08;4.70;;;1.55;;
24897;SDS011;12957;49.434;8.684;2023-05-07T03:32:34;3.72;;;1.90;;
24897;SDS011;12957;49.434;8.684;2023-05-07T03:35:00;1.67;;;1.58;;
24897;SDS011;12957;49.434;8.684;2023-05-07T03:37:25;1.50;;;1.40;;
24897;SDS011;12957;49.434;8.684;2023-05-07T03:39:51;3.20;;;1.65;;
24897;SDS011;12957;49.434;8.684;2023-05-07T03:42:16;1.63;;;1.52;;
24897;SDS011;12957;49.434;8.684;2023-05-07T03:44:42;2.15;;;1.70;;
24897;SDS011;12957;49.434;8.684;2023-05-07T03:47:07;1.92;;;1.83;;
24897;SDS011;12957;49.434;8.684;2023-05-07T03:49:33;1.85;;;1.75;;
24897;SDS011;12957;49.434;8.684;2023-05-07T03:51:58;2.60;;;1.80;;
24897;SDS011;12957;49.434;8.684;2023-05-07T03:54:24;2.28;;;1.60;;
24897;SDS011;12957;49.434;8.684;2023-05-07T03:56:49;1.50;;;1.40;;
24897;SDS011;12957;49.434;8.684;2023-05-07T03:59:15;2.15;;;1.70;;
24897;SDS011;12957;49.434;8.684;2023-05-07T04:01:40;1.58;;;1.42;;
24897;SDS011;12957;49.434;8.684;2023-05-07T04:04:06;1.98;;;1.75;;
24897;SDS011;12957;49.434;8.684;2023-05-07T04:06:31;1.80;;;1.70;;
24897;SDS011;12957;49.434;8.684;2023-05-07T04:08:57;2.67;;;2.00;;
24897;SDS011;12957;49.434;8.684;2023-05-07T04:11:22;4.05;;;2.03;;
24897;SDS011;12957;49.434;8.684;2023-05-07T04:13:48;3.10;;;2.00;;
24897;SDS011;12957;49.434;8.684;2023-05-07T04:16:14;2.80;;;2.00;;
24897;SDS011;12957;49.434;8.684;2023-05-07T04:18:39;2.30;;;1.83;;
24897;SDS011;12957;49.434;8.684;2023-05-07T04:21:06;3.95;;;2.28;;
24897;SDS011;12957;49.434;8.684;2023-05-07T04:23:39;2.92;;;2.22;;
24897;SDS011;12957;49.434;8.684;2023-05-07T04:26:04;3.45;;;2.20;;
24897;SDS011;12957;49.434;8.684;2023-05-07T04:28:30;2.58;;;2.45;;
24897;SDS011;12957;49.434;8.684;2023-05-07T04:30:55;4.88;;;2.60;;
24897;SDS011;12957;49.434;8.684;2023-05-07T04:33:21;3.40;;;2.83;;
24897;SDS011;12957;49.434;8.684;2023-05-07T04:35:46;2.72;;;2.40;;
24897;SDS011;12957;49.434;8.684;2023-05-07T04:38:12;4.38;;;2.38;;
24897;SDS011;12957;49.434;8.684;2023-05-07T04:40:37;4.70;;;2.90;;
24897;SDS011;12957;49.434;8.684;2023-05-07T04:43:03;5.03;;;2.53;;
24897;SDS011;12957;49.434;8.684;2023-05-07T04:45:29;3.22;;;2.50;;
24897;SDS011;12957;49.434;8.684;2023-05-07T04:47:55;2.45;;;2.35;;
24897;SDS011;12957;49.434;8.684;2023-05-07T04:50:20;4.38;;;2.83;;
24897;SDS011;12957;49.434;8.684;2023-05-07T04:52:48;2.83;;;2.55;;
24897;SDS011;12957;49.434;8.684;2023-05-07T04:55:14;6.93;;;3.08;;
24897;SDS011;12957;49.434;8.684;2023-05-07T04:57:39;2.83;;;2.45;;
24897;SDS011;12957;49.434;8.684;2023-05-07T05:00:06;5.05;;;2.72;;
24897;SDS011;12957;49.434;8.684;2023-05-07T05:02:33;4.05;;;2.38;;
24897;SDS011;12957;49.434;8.684;2023-05-07T05:04:59;2.90;;;2.70;;
24897;SDS011;12957;49.434;8.684;2023-05-07T05:07:26;6.28;;;2.83;;
24897;SDS011;12957;49.434;8.684;2023-05-07T05:09:51;3.15;;;2.85;;
24897;SDS011;12957;49.434;8.684;2023-05-07T05:12:17;5.70;;;2.83;;
24897;SDS011;12957;49.434;8.684;2023-05-07T05:14:42;6.07;;;2.83;;
24897;SDS011;12957;49.434;8.684;2023-05-07T05:17:08;2.78;;;2.58;;
24897;SDS011;12957;49.434;8.684;2023-05-07T05:19:33;4.07;;;2.83;;
24897;SDS011;12957;49.434;8.684;2023-05-07T05:21:59;4.88;;;3.80;;
24897;SDS011;12957;49.434;8.684;2023-05-07T05:24:26;3.45;;;3.05;;
24897;SDS011;12957;49.434;8.684;2023-05-07T05:26:52;4.20;;;3.17;;
24897;SDS011;12957;49.434;8.684;2023-05-07T05:29:18;3.08;;;2.60;;
24897;SDS011;12957;49.434;8.684;2023-05-07T05:31:44;3.65;;;3.30;;
24897;SDS011;12957;49.434;8.684;2023-05-07T05:34:09;3.00;;;2.70;;
24897;SDS011;12957;49.434;8.684;2023-05-07T05:36:35;4.55;;;2.95;;
24897;SDS011;12957;49.434;8.684;2023-05-07T05:39:00;4.50;;;3.42;;
24897;SDS011;12957;49.434;8.684;2023-05-07T05:41:26;7.53;;;2.67;;
24897;SDS011;12957;49.434;8.684;2023-05-07T05:43:51;6.55;;;3.05;;
24897;SDS011;12957;49.434;8.684;2023-05-07T05:46:16;3.95;;;2.88;;
24897;SDS011;12957;49.434;8.684;2023-05-07T05:48:42;4.55;;;3.00;;
24897;SDS011;12957;49.434;8.684;2023-05-07T05:51:07;2.90;;;2.70;;
24897;SDS011;12957;49.434;8.684;2023-05-07T05:53:33;2.78;;;2.58;;
24897;SDS011;12957;49.434;8.684;2023-05-07T05:55:58;4.50;;;2.55;;
24897;SDS011;12957;49.434;8.684;2023-05-07T05:58:24;2.47;;;2.38;;
24897;SDS011;12957;49.434;8.684;2023-05-07T06:00:49;2.58;;;2.38;;
24897;SDS011;12957;49.434;8.684;2023-05-07T06:03:17;3.33;;;2.30;;
24897;SDS011;12957;49.434;8.684;2023-05-07T06:05:42;3.33;;;2.45;;
24897;SDS011;12957;49.434;8.684;2023-05-07T06:08:08;3.63;;;2.50;;
24897;SDS011;12957;49.434;8.684;2023-05-07T06:10:34;4.55;;;2.75;;
24897;SDS011;12957;49.434;8.684;2023-05-07T06:13:01;3.28;;;2.67;;
24897;SDS011;12957;49.434;8.684;2023-05-07T06:15:26;2.88;;;2.60;;
24897;SDS011;12957;49.434;8.684;2023-05-07T06:17:52;4.30;;;2.53;;
24897;SDS011;12957;49.434;8.684;2023-05-07T06:20:17;3.90;;;2.40;;
24897;SDS011;12957;49.434;8.684;2023-05-07T06:22:43;4.68;;;2.40;;
24897;SDS011;12957;49.434;8.684;2023-05-07T06:25:08;5.05;;;2.78;;
24897;SDS011;12957;49.434;8.684;2023-05-07T06:27:34;2.85;;;2.00;;
24897;SDS011;12957;49.434;8.684;2023-05-07T06:30:00;2.63;;;2.42;;
24897;SDS011;12957;49.434;8.684;2023-05-07T06:32:25;2.92;;;2.40;;
24897;SDS011;12957;49.434;8.684;2023-05-07T06:34:51;4.72;;;2.22;;
24897;SDS011;12957;49.434;8.684;2023-05-07T06:37:16;2.90;;;2.70;;
24897;SDS011;12957;49.434;8.684;2023-05-07T06:39:43;8.38;;;2.17;;
24897;SDS011;12957;49.434;8.684;2023-05-07T06:42:08;2.15;;;2.00;;
24897;SDS011;12957;49.434;8.684;2023-05-07T06:44:34;2.70;;;2.30;;
24897;SDS011;12957;49.434;8.684;2023-05-07T06:46:59;4.07;;;2.60;;
24897;SDS011;12957;49.434;8.684;2023-05-07T06:49:25;10.30;;;2.70;;
24897;SDS011;12957;49.434;8.684;2023-05-07T06:51:50;2.35;;;2.20;;
24897;SDS011;12957;49.434;8.684;2023-05-07T06:54:16;3.95;;;2.97;;
24897;SDS011;12957;49.434;8.684;2023-05-07T06:56:41;4.22;;;2.42;;
24897;SDS011;12957;49.434;8.684;2023-05-07T06:59:07;2.30;;;2.10;;
24897;SDS011;12957;49.434;8.684;2023-05-07T07:01:32;2.85;;;2.40;;
24897;SDS011;12957;49.434;8.684;2023-05-07T07:03:58;2.78;;;2.20;;
24897;SDS011;12957;49.434;8.684;2023-05-07T07:06:23;2.53;;;2.28;;
24897;SDS011;12957;49.434;8.684;2023-05-07T07:08:49;2.40;;;2.20;;
24897;SDS011;12957;49.434;8.684;2023-05-07T07:11:14;3.92;;;2.63;;
24897;SDS011;12957;49.434;8.684;2023-05-07T07:13:40;3.20;;;2.53;;
24897;SDS011;12957;49.434;8.684;2023-05-07T07:16:06;5.63;;;2.63;;
24897;SDS011;12957;49.434;8.684;2023-05-07T07:18:31;2.78;;;2.58;;
24897;SDS011;12957;49.434;8.684;2023-05-07T07:20:57;6.25;;;3.08;;
24897;SDS011;12957;49.434;8.684;2023-05-07T07:23:23;2.88;;;2.67;;
24897;SDS011;12957;49.434;8.684;2023-05-07T07:25:48;5.50;;;2.63;;
24897;SDS011;12957;49.434;8.684;2023-05-07T07:28:14;2.63;;;2.42;;
24897;SDS011;12957;49.434;8.684;2023-05-07T07:30:39;7.88;;;2.72;;
24897;SDS011;12957;49.434;8.684;2023-05-07T07:33:05;3.13;;;2.85;;
24897;SDS011;12957;49.434;8.684;2023-05-07T07:35:33;4.30;;;2.28;;
24897;SDS011;12957;49.434;8.684;2023-05-07T07:37:59;2.20;;;2.10;;
24897;SDS011;12957;49.434;8.684;2023-05-07T07:40:25;2.58;;;2.38;;
24897;SDS011;12957;49.434;8.684;2023-05-07T07:42:51;3.03;;;2.22;;
24897;SDS011;12957;49.434;8.684;2023-05-07T07:45:16;3.30;;;2.00;;
24897;SDS011;12957;49.434;8.684;2023-05-07T07:47:42;2.08;;;1.80;;
24897;SDS011;12957;49.434;8.684;2023-05-07T07:50:08;2.60;;;2.28;;
24897;SDS011;12957;49.434;8.684;2023-05-07T07:52:34;3.83;;;2.63;;
24897;SDS011;12957;49.434;8.684;2023-05-07T07:54:59;2.28;;;1.98;;
24897;SDS011;12957;49.434;8.684;2023-05-07T07:57:25;5.40;;;2.67;;
24897;SDS011;12957;49.434;8.684;2023-05-07T07:59:50;2.60;;;2.30;;
24897;SDS011;12957;49.434;8.684;2023-05-07T08:02:16;5.47;;;2.30;;
24897;SDS011;12957;49.434;8.684;2023-05-07T08:04:42;4.15;;;2.35;;
24897;SDS011;12957;49.434;8.684;2023-05-07T08:07:08;4.78;;;2.42;;
24897;SDS011;12957;49.434;8.684;2023-05-07T08:09:34;2.60;;;2.40;;
24897;SDS011;12957;49.434;8.684;2023-05-07T08:12:00;4.85;;;2.45;;
24897;SDS011;12957;49.434;8.684;2023-05-07T08:14:26;4.95;;;2.53;;
24897;SDS011;12957;49.434;8.684;2023-05-07T08:16:53;3.25;;;2.08;;
24897;SDS011;12957;49.434;8.684;2023-05-07T08:19:19;5.88;;;2.00;;
24897;SDS011;12957;49.434;8.684;2023-05-07T08:21:45;2.53;;;1.88;;
24897;SDS011;12957;49.434;8.684;2023-05-07T08:24:12;2.90;;;2.38;;
24897;SDS011;12957;49.434;8.684;2023-05-07T08:26:41;3.40;;;2.00;;
24897;SDS011;12957;49.434;8.684;2023-05-07T08:29:07;1.55;;;1.52;;
24897;SDS011;12957;49.434;8.684;2023-05-07T08:31:32;3.50;;;1.98;;
24897;SDS011;12957;49.434;8.684;2023-05-07T08:33:58;2.08;;;1.88;;
24897;SDS011;12957;49.434;8.684;2023-05-07T08:36:23;1.98;;;1.80;;
24897;SDS011;12957;49.434;8.684;2023-05-07T08:38:49;3.55;;;1.98;;
24897;SDS011;12957;49.434;8.684;2023-05-07T08:41:15;3.03;;;2.10;;
24897;SDS011;12957;49.434;8.684;2023-05-07T08:43:41;3.05;;;1.77;;
24897;SDS011;12957;49.434;8.684;2023-05-07T08:46:07;3.30;;;1.48;;
24897;SDS011;12957;49.434;8.684;2023-05-07T08:48:34;3.15;;;2.00;;
24897;SDS011;12957;49.434;8.684;2023-05-07T08:51:00;1.98;;;1.75;;
24897;SDS011;12957;49.434;8.684;2023-05-07T08:53:25;4.05;;;2.20;;
24897;SDS011;12957;49.434;8.684;2023-05-07T08:55:51;5.03;;;2.10;;
24897;SDS011;12957;49.434;8.684;2023-05-07T08:58:18;3.45;;;1.80;;
24897;SDS011;12957;49.434;8.684;2023-05-07T09:00:43;2.40;;;1.90;;
24897;SDS011;12957;49.434;8.684;2023-05-07T09:03:09;3.65;;;2.20;;
24897;SDS011;12957;49.434;8.684;2023-05-07T09:05:37;2.08;;;1.95;;
24897;SDS011;12957;49.434;8.684;2023-05-07T09:08:03;3.65;;;1.70;;
24897;SDS011;12957;49.434;8.684;2023-05-07T09:10:29;2.20;;;1.60;;
24897;SDS011;12957;49.434;8.684;2023-05-07T09:12:54;1.70;;;1.58;;
24897;SDS011;12957;49.434;8.684;2023-05-07T09:15:20;4.13;;;1.90;;
24897;SDS011;12957;49.434;8.684;2023-05-07T09:17:45;4.55;;;1.70;;
24897;SDS011;12957;49.434;8.684;2023-05-07T09:20:11;5.38;;;1.75;;
24897;SDS011;12957;49.434;8.684;2023-05-07T09:22:37;4.80;;;1.45;;
24897;SDS011;12957;49.434;8.684;2023-05-07T09:25:03;2.58;;;1.40;;
24897;SDS011;12957;49.434;8.684;2023-05-07T09:27:29;2.38;;;1.70;;
24897;SDS011;12957;49.434;8.684;2023-05-07T09:29:55;3.42;;;1.80;;
24897;SDS011;12957;49.434;8.684;2023-05-07T09:32:21;3.00;;;1.38;;
24897;SDS011;12957;49.434;8.684;2023-05-07T09:34:46;1.85;;;1.75;;
24897;SDS011;12957;49.434;8.684;2023-05-07T09:37:12;1.88;;;1.75;;
24897;SDS011;12957;49.434;8.684;2023-05-07T09:39:48;2.20;;;2.10;;
24897;SDS011;12957;49.434;8.684;2023-05-07T09:42:14;1.75;;;1.65;;
24897;SDS011;12957;49.434;8.684;2023-05-07T09:44:40;1.70;;;1.50;;
24897;SDS011;12957;49.434;8.684;2023-05-07T09:47:06;1.80;;;1.70;;
24897;SDS011;12957;49.434;8.684;2023-05-07T09:49:33;2.03;;;1.65;;
24897;SDS011;12957;49.434;8.684;2023-05-07T09:52:01;2.22;;;1.40;;
24897;SDS011;12957;49.434;8.684;2023-05-07T09:54:27;3.85;;;1.70;;
24897;SDS011;12957;49.434;8.684;2023-05-07T09:56:56;2.15;;;1.30;;
24897;SDS011;12957;49.434;8.684;2023-05-07T09:59:21;3.05;;;1.50;;
24897;SDS011;12957;49.434;8.684;2023-05-07T10:01:47;1.60;;;1.50;;
24897;SDS011;12957;49.434;8.684;2023-05-07T10:04:14;2.03;;;1.80;;
24897;SDS011;12957;49.434;8.684;2023-05-07T10:06:40;1.60;;;1.30;;
24897;SDS011;12957;49.434;8.684;2023-05-07T10:09:06;2.10;;;1.70;;
24897;SDS011;12957;49.434;8.684;2023-05-07T10:11:32;3.78;;;1.67;;
24897;SDS011;12957;49.434;8.684;2023-05-07T10:14:01;3.33;;;1.80;;
24897;SDS011;12957;49.434;8.684;2023-05-07T10:16:36;1.55;;;1.45;;
24897;SDS011;12957;49.434;8.684;2023-05-07T10:19:06;1.50;;;1.40;;
24897;SDS011;12957;49.434;8.684;2023-05-07T10:21:34;2.78;;;1.60;;
24897;SDS011;12957;49.434;8.684;2023-05-07T10:24:05;2.33;;;1.50;;
24897;SDS011;12957;49.434;8.684;2023-05-07T10:26:33;1.70;;;1.60;;
24897;SDS011;12957;49.434;8.684;2023-05-07T10:29:05;1.83;;;1.70;;
24897;SDS011;12957;49.434;8.684;2023-05-07T10:31:49;2.53;;;1.42;;
24897;SDS011;12957;49.434;8.684;2023-05-07T10:34:27;1.63;;;1.38;;
24897;SDS011;12957;49.434;8.684;2023-05-07T10:36:55;1.83;;;1.73;;
24897;SDS011;12957;49.434;8.684;2023-05-07T10:39:21;1.60;;;1.50;;
24897;SDS011;12957;49.434;8.684;2023-05-07T10:41:47;4.28;;;1.90;;
24897;SDS011;12957;49.434;8.684;2023-05-07T10:44:24;3.78;;;1.50;;
24897;SDS011;12957;49.434;8.684;2023-05-07T10:47:03;3.97;;;1.67;;
24897;SDS011;12957;49.434;8.684;2023-05-07T10:49:29;6.88;;;1.70;;
24897;SDS011;12957;49.434;8.684;2023-05-07T10:57:50;1.75;;;1.40;;
24897;SDS011;12957;49.434;8.684;2023-05-07T11:05:25;2.60;;;1.63;;
24897;SDS011;12957;49.434;8.684;2023-05-07T11:07:55;1.38;;;1.23;;
24897;SDS011;12957;49.434;8.684;2023-05-07T11:10:21;1.40;;;1.40;;
24897;SDS011;12957;49.434;8.684;2023-05-07T11:12:47;1.30;;;1.17;;
24897;SDS011;12957;49.434;8.684;2023-05-07T11:15:14;2.13;;;1.38;;
24897;SDS011;12957;49.434;8.684;2023-05-07T11:17:55;1.45;;;1.35;;
24897;SDS011;12957;49.434;8.684;2023-05-07T11:20:43;3.28;;;1.50;;
24897;SDS011;12957;49.434;8.684;2023-05-07T11:26:04;2.67;;;1.50;;
24897;SDS011;12957;49.434;8.684;2023-05-07T11:28:30;4.03;;;1.48;;
24897;SDS011;12957;49.434;8.684;2023-05-07T11:30:56;1.95;;;1.77;;
24897;SDS011;12957;49.434;8.684;2023-05-07T11:33:22;1.38;;;1.23;;
24897;SDS011;12957;49.434;8.684;2023-05-07T11:35:48;3.92;;;1.60;;
24897;SDS011;12957;49.434;8.684;2023-05-07T11:38:13;1.63;;;1.20;;
24897;SDS011;12957;49.434;8.684;2023-05-07T11:40:51;3.92;;;1.60;;
24897;SDS011;12957;49.434;8.684;2023-05-07T11:43:17;1.30;;;1.30;;
24897;SDS011;12957;49.434;8.684;2023-05-07T11:45:43;1.98;;;1.40;;
24897;SDS011;12957;49.434;8.684;2023-05-07T11:48:09;3.58;;;1.30;;
24897;SDS011;12957;49.434;8.684;2023-05-07T11:50:35;1.50;;;1.40;;
24897;SDS011;12957;49.434;8.684;2023-05-07T11:53:07;5.10;;;1.55;;
24897;SDS011;12957;49.434;8.684;2023-05-07T11:55:32;1.50;;;1.35;;
24897;SDS011;12957;49.434;8.684;2023-05-07T11:57:58;1.38;;;1.38;;
24897;SDS011;12957;49.434;8.684;2023-05-07T12:00:23;1.38;;;1.30;;
24897;SDS011;12957;49.434;8.684;2023-05-07T12:02:49;1.48;;;1.30;;
24897;SDS011;12957;49.434;8.684;2023-05-07T12:05:14;5.07;;;1.60;;
24897;SDS011;12957;49.434;8.684;2023-05-07T12:07:41;1.80;;;1.38;;
24897;SDS011;12957;49.434;8.684;2023-05-07T12:10:07;2.92;;;1.40;;
24897;SDS011;12957;49.434;8.684;2023-05-07T12:12:45;1.52;;;1.42;;
24897;SDS011;12957;49.434;8.684;2023-05-07T12:15:13;1.88;;;1.23;;
24897;SDS011;12957;49.434;8.684;2023-05-07T12:17:41;2.63;;;1.40;;
24897;SDS011;12957;49.434;8.684;2023-05-07T12:20:06;2.88;;;1.40;;
24897;SDS011;12957;49.434;8.684;2023-05-07T12:22:32;2.03;;;1.60;;
24897;SDS011;12957;49.434;8.684;2023-05-07T12:24:58;1.55;;;1.48;;
24897;SDS011;12957;49.434;8.684;2023-05-07T12:27:24;1.55;;;1.52;;
24897;SDS011;12957;49.434;8.684;2023-05-07T12:29:50;3.58;;;1.63;;
24897;SDS011;12957;49.434;8.684;2023-05-07T12:32:16;2.17;;;1.65;;
24897;SDS011;12957;49.434;8.684;2023-05-07T12:34:43;1.90;;;1.80;;
24897;SDS011;12957;49.434;8.684;2023-05-07T12:37:09;11.05;;;7.22;;
24897;SDS011;12957;49.434;8.684;2023-05-07T12:39:35;3.90;;;3.50;;
24897;SDS011;12957;49.434;8.684;2023-05-07T12:42:00;1.80;;;1.70;;
24897;SDS011;12957;49.434;8.684;2023-05-07T12:44:30;5.43;;;3.22;;
24897;SDS011;12957;49.434;8.684;2023-05-07T12:46:56;2.70;;;1.70;;
24897;SDS011;12957;49.434;8.684;2023-05-07T12:49:22;2.15;;;1.60;;
24897;SDS011;12957;49.434;8.684;2023-05-07T12:51:48;1.90;;;1.60;;
24897;SDS011;12957;49.434;8.684;2023-05-07T12:54:34;1.70;;;1.60;;
24897;SDS011;12957;49.434;8.684;2023-05-07T12:57:02;5.28;;;1.70;;
24897;SDS011;12957;49.434;8.684;2023-05-07T12:59:33;1.73;;;1.30;;
24897;SDS011;12957;49.434;8.684;2023-05-07T13:01:58;2.78;;;1.80;;
24897;SDS011;12957;49.434;8.684;2023-05-07T13:04:24;1.80;;;1.70;;
24897;SDS011;12957;49.434;8.684;2023-05-07T13:06:50;3.08;;;2.17;;
24897;SDS011;12957;49.434;8.684;2023-05-07T13:09:15;3.05;;;1.90;;
24897;SDS011;12957;49.434;8.684;2023-05-07T13:11:41;3.00;;;1.75;;
24897;SDS011;12957;49.434;8.684;2023-05-07T13:14:06;3.60;;;1.85;;
24897;SDS011;12957;49.434;8.684;2023-05-07T13:16:32;3.22;;;1.70;;
24897;SDS011;12957;49.434;8.684;2023-05-07T13:18:57;2.10;;;1.88;;
24897;SDS011;12957;49.434;8.684;2023-05-07T13:21:23;6.00;;;2.15;;
24897;SDS011;12957;49.434;8.684;2023-05-07T13:23:48;2.13;;;1.50;;
24897;SDS011;12957;49.434;8.684;2023-05-07T13:26:14;2.33;;;2.08;;
24897;SDS011;12957;49.434;8.684;2023-05-07T13:28:39;2.17;;;1.60;;
24897;SDS011;12957;49.434;8.684;2023-05-07T13:31:05;2.13;;;1.98;;
24897;SDS011;12957;49.434;8.684;2023-05-07T13:33:30;1.90;;;1.80;;
24897;SDS011;12957;49.434;8.684;2023-05-07T13:35:56;1.77;;;1.60;;
24897;SDS011;12957;49.434;8.684;2023-05-07T13:38:22;4.00;;;1.80;;
24897;SDS011;12957;49.434;8.684;2023-05-07T13:40:47;1.60;;;1.50;;
24897;SDS011;12957;49.434;8.684;2023-05-07T13:43:13;2.80;;;2.20;;
24897;SDS011;12957;49.434;8.684;2023-05-07T13:45:39;1.70;;;1.60;;
24897;SDS011;12957;49.434;8.684;2023-05-07T13:48:05;3.60;;;1.80;;
24897;SDS011;12957;49.434;8.684;2023-05-07T13:50:30;2.00;;;1.73;;
24897;SDS011;12957;49.434;8.684;2023-05-07T13:52:56;2.00;;;1.90;;
24897;SDS011;12957;49.434;8.684;2023-05-07T13:55:21;3.67;;;2.20;;
24897;SDS011;12957;49.434;8.684;2023-05-07T13:57:54;1.92;;;1.77;;
24897;SDS011;12957;49.434;8.684;2023-05-07T14:00:23;7.85;;;3.40;;
24897;SDS011;12957;49.434;8.684;2023-05-07T14:02:49;5.95;;;2.33;;
24897;SDS011;12957;49.434;8.684;2023-05-07T14:05:14;5.88;;;2.38;;
24897;SDS011;12957;49.434;8.684;2023-05-07T14:07:40;3.97;;;2.15;;
24897;SDS011;12957;49.434;8.684;2023-05-07T14:10:05;2.05;;;1.95;;
24897;SDS011;12957;49.434;8.684;2023-05-07T14:12:31;4.45;;;2.40;;
24897;SDS011;12957;49.434;8.684;2023-05-07T14:14:57;4.40;;;2.20;;
24897;SDS011;12957;49.434;8.684;2023-05-07T14:17:23;8.07;;;3.08;;
24897;SDS011;12957;49.434;8.684;2023-05-07T14:19:50;11.10;;;3.15;;
24897;SDS011;12957;49.434;8.684;2023-05-07T14:22:15;3.47;;;2.75;;
24897;SDS011;12957;49.434;8.684;2023-05-07T14:24:41;4.65;;;2.78;;
24897;SDS011;12957;49.434;8.684;2023-05-07T14:27:06;2.67;;;2.47;;
24897;SDS011;12957;49.434;8.684;2023-05-07T14:29:32;6.00;;;2.20;;
24897;SDS011;12957;49.434;8.684;2023-05-07T14:31:57;8.93;;;3.40;;
24897;SDS011;12957;49.434;8.684;2023-05-07T14:34:23;4.78;;;2.88;;
24897;SDS011;12957;49.434;8.684;2023-05-07T14:36:48;5.53;;;3.15;;
24897;SDS011;12957;49.434;8.684;2023-05-07T14:39:14;5.47;;;3.08;;
24897;SDS011;12957;49.434;8.684;2023-05-07T14:41:40;11.23;;;3.80;;
24897;SDS011;12957;49.434;8.684;2023-05-07T14:44:05;15.95;;;3.72;;
24897;SDS011;12957;49.434;8.684;2023-05-07T14:46:31;6.32;;;3.63;;
24897;SDS011;12957;49.434;8.684;2023-05-07T14:48:57;13.40;;;4.75;;
24897;SDS011;12957;49.434;8.684;2023-05-07T14:51:22;10.02;;;4.85;;
24897;SDS011;12957;49.434;8.684;2023-05-07T14:53:49;8.98;;;4.00;;
24897;SDS011;12957;49.434;8.684;2023-05-07T14:56:15;9.60;;;4.22;;